createdAt,value
2018-02-19T00:00:16.775Z,34.20
2018-02-19T00:02:43.780Z,31.13
2018-02-19T00:05:10.083Z,36.93
2018-02-19T00:07:36.371Z,34.60
2018-02-19T00:10:02.644Z,34.87
2018-02-19T00:12:28.917Z,36.00
2018-02-19T00:14:55.170Z,41.10
2018-02-19T00:17:21.412Z,32.87
2018-02-19T00:19:47.652Z,32.93
2018-02-19T00:22:13.916Z,40.17
2018-02-19T00:24:40.924Z,34.67
2018-02-19T00:27:07.161Z,32.87
2018-02-19T00:29:33.461Z,33.70
2018-02-19T00:31:59.704Z,30.83
2018-02-19T00:34:25.980Z,36.90
2018-02-19T00:36:52.965Z,31.00
2018-02-19T00:39:19.227Z,36.50
2018-02-19T00:41:45.524Z,38.30
2018-02-19T00:44:11.779Z,36.87
2018-02-19T00:46:38.029Z,33.93
2018-02-19T00:49:04.283Z,32.10
2018-02-19T00:51:30.532Z,30.40
2018-02-19T00:53:56.813Z,36.27
2018-02-19T00:56:23.031Z,32.67
2018-02-19T00:58:49.306Z,33.30
2018-02-19T01:01:15.841Z,43.10
2018-02-19T01:03:42.173Z,35.97
2018-02-19T01:06:08.397Z,30.23
2018-02-19T01:08:34.659Z,31.60
2018-02-19T01:11:00.929Z,34.90
2018-02-19T01:13:27.217Z,39.23
2018-02-19T01:16:19.457Z,31.63
2018-02-19T01:18:46.367Z,31.73
2018-02-19T01:21:13.383Z,31.30
2018-02-19T01:23:39.641Z,32.87
2018-02-19T01:26:06.652Z,35.57
2018-02-19T01:28:32.912Z,35.30
2018-02-19T01:30:59.938Z,36.10
2018-02-19T01:33:26.251Z,32.33
2018-02-19T01:35:53.408Z,28.83
2018-02-19T01:38:19.680Z,38.17
2018-02-19T01:40:45.939Z,31.17
2018-02-19T01:43:12.234Z,31.13
2018-02-19T01:45:39.240Z,27.10
2018-02-19T01:48:05.493Z,34.27
2018-02-19T01:50:31.799Z,28.33
2018-02-19T01:52:58.089Z,32.60
2018-02-19T01:55:24.361Z,27.23
2018-02-19T01:57:50.647Z,30.53
2018-02-19T02:00:16.914Z,33.03
2018-02-19T02:02:43.208Z,28.10
2018-02-19T02:05:09.468Z,30.60
2018-02-19T02:07:35.733Z,29.20
2018-02-19T02:10:01.989Z,34.70
2018-02-19T02:12:28.267Z,26.93
2018-02-19T02:14:54.512Z,35.07
2018-02-19T02:17:20.747Z,32.47
2018-02-19T02:19:47.015Z,28.27
2018-02-19T02:22:13.281Z,26.90
2018-02-19T02:24:39.533Z,30.87
2018-02-19T02:27:05.804Z,28.70
2018-02-19T02:29:32.100Z,36.30
2018-02-19T02:31:58.329Z,37.40
2018-02-19T02:34:24.586Z,34.63
2018-02-19T02:36:50.840Z,34.13
2018-02-19T02:39:17.094Z,32.33
2018-02-19T02:41:44.062Z,31.20
2018-02-19T02:44:11.061Z,34.50
2018-02-19T02:46:38.313Z,37.50
2018-02-19T02:49:04.628Z,35.17
2018-02-19T02:51:30.866Z,34.83
2018-02-19T02:53:57.201Z,29.27
2018-02-19T02:56:23.472Z,29.80
2018-02-19T02:58:49.820Z,32.93
2018-02-19T03:01:16.853Z,34.90
2018-02-19T03:03:43.173Z,44.43
2018-02-19T03:06:09.483Z,38.30
2018-02-19T03:08:35.719Z,32.80
2018-02-19T03:11:01.989Z,33.97
2018-02-19T03:13:29.014Z,33.40
2018-02-19T03:15:55.246Z,35.37
2018-02-19T03:18:21.527Z,38.63
2018-02-19T03:20:47.782Z,41.50
2018-02-19T03:23:14.088Z,39.43
2018-02-19T03:25:40.335Z,36.03
2018-02-19T03:28:06.649Z,39.33
2018-02-19T03:30:32.910Z,37.77
2018-02-19T03:32:59.169Z,37.67
2018-02-19T03:35:25.469Z,37.30
2018-02-19T03:37:51.762Z,39.00
2018-02-19T03:40:18.020Z,41.37
2018-02-19T03:42:44.287Z,39.37
2018-02-19T03:45:10.565Z,47.43
2018-02-19T03:47:36.839Z,37.00
2018-02-19T03:50:03.131Z,36.97
2018-02-19T03:52:29.408Z,37.83
2018-02-19T03:54:55.688Z,39.00
2018-02-19T03:57:21.981Z,36.30
2018-02-19T03:59:48.974Z,35.20
2018-02-19T04:02:15.303Z,38.90
2018-02-19T04:04:41.549Z,40.23
2018-02-19T04:07:07.782Z,35.03
2018-02-19T04:09:34.064Z,40.83
2018-02-19T04:12:00.294Z,43.50
2018-02-19T04:17:05.465Z,40.20
2018-02-19T04:19:31.810Z,39.10
2018-02-19T04:21:58.127Z,38.90
2018-02-19T04:24:24.455Z,38.73
2018-02-19T04:26:50.834Z,37.33
2018-02-19T04:29:17.115Z,38.07
2018-02-19T04:31:43.469Z,36.40
2018-02-19T04:34:09.783Z,35.27
2018-02-19T04:36:36.033Z,37.83
2018-02-19T04:39:03.041Z,36.27
2018-02-19T04:41:30.032Z,40.50
2018-02-19T04:43:56.305Z,32.47
2018-02-19T04:46:38.290Z,38.23
2018-02-19T04:49:04.548Z,39.90
2018-02-19T04:51:30.874Z,42.10
2018-02-19T04:53:57.119Z,35.23
2018-02-19T04:56:30.379Z,33.80
2018-02-19T04:58:57.389Z,37.93
2018-02-19T05:01:23.676Z,35.47
2018-02-19T05:03:50.491Z,39.03
2018-02-19T05:06:17.503Z,39.00
2018-02-19T05:08:43.789Z,40.83
2018-02-19T05:11:10.834Z,37.13
2018-02-19T05:13:37.868Z,33.97
2018-02-19T05:16:04.128Z,32.77
2018-02-19T05:18:30.429Z,34.53
2018-02-19T05:20:56.694Z,39.33
2018-02-19T05:23:22.999Z,32.30
2018-02-19T05:25:50.016Z,38.50
2018-02-19T05:28:16.303Z,39.33
2018-02-19T05:30:42.578Z,37.47
2018-02-19T05:33:08.843Z,41.50
2018-02-19T05:35:35.904Z,44.80
2018-02-19T05:38:02.241Z,37.00
2018-02-19T05:40:28.561Z,37.27
2018-02-19T05:42:54.873Z,36.60
2018-02-19T05:45:21.917Z,32.90
2018-02-19T05:47:48.949Z,40.40
2018-02-19T05:50:15.203Z,35.77
2018-02-19T05:52:42.208Z,36.30
2018-02-19T05:55:08.482Z,33.53
2018-02-19T05:57:35.485Z,33.33
2018-02-19T06:00:01.742Z,34.40
2018-02-19T06:02:28.002Z,37.00
2018-02-19T06:04:54.256Z,37.10
2018-02-19T06:07:20.504Z,36.70
2018-02-19T06:09:46.788Z,34.37
2018-02-19T06:12:13.054Z,42.10
2018-02-19T06:14:40.078Z,30.10
2018-02-19T06:17:06.349Z,32.77
2018-02-19T06:19:39.499Z,37.83
2018-02-19T06:22:05.819Z,34.20
2018-02-19T06:24:32.126Z,37.13
2018-02-19T06:26:59.167Z,35.20
2018-02-19T06:29:26.173Z,37.00
2018-02-19T06:31:52.448Z,38.60
2018-02-19T06:34:19.444Z,35.30
2018-02-19T06:36:45.683Z,36.57
2018-02-19T06:39:12.012Z,33.83
2018-02-19T06:41:38.282Z,35.57
2018-02-19T06:44:04.561Z,34.50
2018-02-19T06:46:30.844Z,35.67
2018-02-19T06:48:57.993Z,33.50
2018-02-19T06:51:24.318Z,38.70
2018-02-19T06:53:50.581Z,39.77
2018-02-19T06:56:16.870Z,43.67
2018-02-19T06:58:43.099Z,37.30
2018-02-19T07:01:09.371Z,37.43
2018-02-19T07:03:35.677Z,34.83
2018-02-19T07:06:01.935Z,40.70
2018-02-19T07:08:28.223Z,43.80
2018-02-19T07:10:54.505Z,42.13
2018-02-19T07:13:20.773Z,34.70
2018-02-19T07:15:47.029Z,40.27
2018-02-19T07:18:14.034Z,32.40
2018-02-19T07:20:40.337Z,39.43
2018-02-19T07:23:06.611Z,38.20
2018-02-19T07:25:32.853Z,37.37
2018-02-19T07:27:59.126Z,37.97
2018-02-19T07:30:25.393Z,38.17
2018-02-19T07:32:51.772Z,33.30
2018-02-19T07:35:18.802Z,37.97
2018-02-19T07:37:45.854Z,37.03
2018-02-19T07:40:12.902Z,37.10
2018-02-19T07:42:55.263Z,42.43
2018-02-19T07:45:24.330Z,30.93
2018-02-19T07:47:50.832Z,42.77
2018-02-19T07:50:17.117Z,39.43
2018-02-19T07:52:43.418Z,44.60
2018-02-19T07:55:09.711Z,44.27
2018-02-19T07:57:35.961Z,38.03
2018-02-19T08:00:02.218Z,32.77
2018-02-19T08:02:28.566Z,37.97
2018-02-19T08:04:55.579Z,37.20
2018-02-19T08:07:21.850Z,34.73
2018-02-19T08:09:48.096Z,35.70
2018-02-19T08:12:14.420Z,33.60
2018-02-19T08:14:40.716Z,37.73
2018-02-19T08:17:06.996Z,42.87
2018-02-19T08:19:33.281Z,32.20
2018-02-19T08:21:59.576Z,34.87
2018-02-19T08:24:26.586Z,29.10
2018-02-19T08:26:52.878Z,37.53
2018-02-19T08:29:19.175Z,37.40
2018-02-19T08:31:45.463Z,40.63
2018-02-19T08:34:11.742Z,38.63
2018-02-19T08:36:38.783Z,36.80
2018-02-19T08:39:05.058Z,36.50
2018-02-19T08:41:31.329Z,36.10
2018-02-19T08:43:57.609Z,29.40
2018-02-19T08:46:23.905Z,33.67
2018-02-19T08:48:50.991Z,34.00
2018-02-19T08:51:17.282Z,36.80
2018-02-19T08:53:43.615Z,38.43
2018-02-19T08:56:10.628Z,33.37
2018-02-19T08:58:36.910Z,33.70
2018-02-19T09:01:03.960Z,30.33
2018-02-19T09:03:30.264Z,35.50
2018-02-19T09:05:56.548Z,33.33
2018-02-19T09:08:22.866Z,35.63
2018-02-19T09:10:49.126Z,31.23
2018-02-19T09:13:16.475Z,26.50
2018-02-19T09:15:42.819Z,30.43
2018-02-19T09:18:09.052Z,30.93
2018-02-19T09:20:35.299Z,30.20
2018-02-19T09:23:01.523Z,30.87
2018-02-19T09:25:27.894Z,29.43
2018-02-19T09:27:54.131Z,30.40
2018-02-19T09:30:20.397Z,27.97
2018-02-19T09:32:46.641Z,32.27
2018-02-19T09:35:12.902Z,22.60
2018-02-19T09:37:39.901Z,26.97
2018-02-19T09:40:06.154Z,28.40
2018-02-19T09:42:32.476Z,27.00
2018-02-19T09:44:58.739Z,32.97
2018-02-19T09:47:25.752Z,24.77
2018-02-19T09:49:52.002Z,35.73
2018-02-19T09:52:18.223Z,30.83
2018-02-19T09:54:44.466Z,28.57
2018-02-19T09:57:11.472Z,26.10
2018-02-19T09:59:37.760Z,30.07
2018-02-19T10:02:04.016Z,33.17
2018-02-19T10:04:30.282Z,30.53
2018-02-19T10:06:56.576Z,27.40
2018-02-19T10:09:22.872Z,28.50
2018-02-19T10:11:49.878Z,28.10
2018-02-19T10:14:16.138Z,27.67
2018-02-19T10:16:43.176Z,23.90
2018-02-19T10:19:09.417Z,25.93
2018-02-19T10:21:36.419Z,24.93
2018-02-19T10:24:02.731Z,23.27
2018-02-19T10:26:35.973Z,29.43
2018-02-19T10:29:02.276Z,25.10
2018-02-19T10:31:28.516Z,22.17
2018-02-19T10:33:54.768Z,31.93
2018-02-19T10:36:21.008Z,26.70
2018-02-19T10:38:48.032Z,28.10
2018-02-19T10:41:14.394Z,25.27
2018-02-19T10:43:40.718Z,28.93
2018-02-19T10:46:07.725Z,34.30
2018-02-19T10:48:34.063Z,28.63
2018-02-19T10:51:00.355Z,23.30
2018-02-19T10:53:26.615Z,31.47
2018-02-19T10:55:52.843Z,31.87
2018-02-19T10:58:19.123Z,23.80
2018-02-19T11:00:46.146Z,27.70
2018-02-19T11:03:12.477Z,25.27
2018-02-19T11:05:38.719Z,24.33
2018-02-19T11:08:05.717Z,31.30
2018-02-19T11:10:32.001Z,30.20
2018-02-19T11:12:59.032Z,26.00
2018-02-19T11:15:25.295Z,26.87
2018-02-19T11:17:51.574Z,25.37
2018-02-19T11:20:18.578Z,28.53
2018-02-19T11:22:44.905Z,24.70
2018-02-19T11:25:11.179Z,24.30
2018-02-19T11:27:37.516Z,23.60
2018-02-19T11:30:03.800Z,19.40
2018-02-19T11:32:30.040Z,14.07
2018-02-19T11:34:56.332Z,16.90
2018-02-19T11:37:23.409Z,17.40
2018-02-19T11:39:49.677Z,20.87
2018-02-19T11:42:15.956Z,22.73
2018-02-19T11:44:42.264Z,17.80
2018-02-19T11:47:09.285Z,15.87
2018-02-19T11:49:35.581Z,14.53
2018-02-19T11:52:01.869Z,13.77
2018-02-19T11:54:35.812Z,14.60
2018-02-19T11:57:02.068Z,19.60
2018-02-19T11:59:28.328Z,17.63
2018-02-19T12:01:54.584Z,16.37
2018-02-19T12:04:21.608Z,12.00
2018-02-19T12:06:47.878Z,16.03
2018-02-19T12:09:14.189Z,15.87
2018-02-19T12:11:41.216Z,17.50
2018-02-19T12:14:07.528Z,15.30
2018-02-19T12:16:33.762Z,16.80
2018-02-19T12:19:00.067Z,15.37
2018-02-19T12:21:26.333Z,17.20
2018-02-19T12:23:52.609Z,12.87
2018-02-19T12:26:18.905Z,15.20
2018-02-19T12:28:45.166Z,13.47
2018-02-19T12:31:11.418Z,16.13
2018-02-19T12:33:37.647Z,13.60
2018-02-19T12:36:03.873Z,15.13
2018-02-19T12:38:30.140Z,15.10
2018-02-19T12:40:56.415Z,15.17
2018-02-19T12:43:22.679Z,16.20
2018-02-19T12:45:48.956Z,12.80
2018-02-19T12:48:15.983Z,18.33
2018-02-19T12:50:42.262Z,15.73
2018-02-19T12:53:08.544Z,16.20
2018-02-19T12:55:34.786Z,15.30
2018-02-19T12:58:01.763Z,20.03
2018-02-19T13:00:28.110Z,18.07
2018-02-19T13:02:54.376Z,14.63
2018-02-19T13:05:20.612Z,20.20
2018-02-19T13:07:46.943Z,17.60
2018-02-19T13:10:13.208Z,20.10
2018-02-19T13:12:39.519Z,21.73
2018-02-19T13:15:06.588Z,19.03
2018-02-19T13:17:33.540Z,18.33
2018-02-19T13:19:59.797Z,20.40
2018-02-19T13:22:26.095Z,20.30
2018-02-19T13:24:52.355Z,22.30
2018-02-19T13:27:18.619Z,17.87
2018-02-19T13:29:45.732Z,17.80
2018-02-19T13:32:12.739Z,22.87
2018-02-19T13:34:39.006Z,24.60
2018-02-19T13:37:05.261Z,30.60
2018-02-19T13:39:31.537Z,25.50
2018-02-19T13:41:57.804Z,24.47
2018-02-19T13:44:24.054Z,20.30
2018-02-19T13:46:50.355Z,18.20
2018-02-19T13:49:16.626Z,23.33
2018-02-19T13:51:43.621Z,21.43
2018-02-19T13:54:09.876Z,27.30
2018-02-19T13:56:36.162Z,14.40
2018-02-19T13:59:02.428Z,19.00
2018-02-19T14:01:28.708Z,15.77
2018-02-19T14:03:55.756Z,16.37
2018-02-19T14:06:22.795Z,23.63
2018-02-19T14:08:49.833Z,16.60
2018-02-19T14:11:16.130Z,15.80
2018-02-19T14:13:42.433Z,19.27
2018-02-19T14:16:08.706Z,21.67
2018-02-19T14:18:34.977Z,14.20
2018-02-19T14:21:01.253Z,19.20
2018-02-19T14:23:27.541Z,17.93
2018-02-19T14:25:53.844Z,17.17
2018-02-19T14:28:20.861Z,21.10
2018-02-19T14:30:47.128Z,17.37
2018-02-19T14:33:13.406Z,18.90
2018-02-19T14:35:39.682Z,17.37
2018-02-19T14:38:05.934Z,18.83
2018-02-19T14:40:32.952Z,19.73
2018-02-19T14:42:59.318Z,17.50
2018-02-19T14:45:25.599Z,18.53
2018-02-19T14:47:51.844Z,17.80
2018-02-19T14:50:18.139Z,18.53
2018-02-19T14:52:44.402Z,23.00
2018-02-19T14:55:10.657Z,18.17
2018-02-19T14:57:37.680Z,20.90
2018-02-19T15:00:03.926Z,21.07
2018-02-19T15:02:30.895Z,16.67
2018-02-19T15:04:57.203Z,19.00
2018-02-19T15:07:24.181Z,18.53
2018-02-19T15:09:50.415Z,19.27
2018-02-19T15:12:16.647Z,23.73
2018-02-19T15:14:42.866Z,18.70
2018-02-19T15:17:09.141Z,22.83
2018-02-19T15:19:36.148Z,20.03
2018-02-19T15:22:02.399Z,21.80
2018-02-19T15:24:28.650Z,18.47
2018-02-19T15:26:54.898Z,21.03
2018-02-19T15:29:21.887Z,20.50
2018-02-19T15:31:48.154Z,21.13
2018-02-19T15:34:14.472Z,26.13
2018-02-19T15:36:40.735Z,23.20
2018-02-19T15:39:07.800Z,23.20
2018-02-19T15:41:34.040Z,21.47
2018-02-19T15:44:00.306Z,22.80
2018-02-19T15:46:26.599Z,21.87
2018-02-19T15:48:52.854Z,26.00
2018-02-19T15:51:19.120Z,29.43
2018-02-19T15:53:45.366Z,23.73
2018-02-19T15:56:11.611Z,24.03
2018-02-19T15:58:37.932Z,25.80
2018-02-19T16:01:04.972Z,25.60
2018-02-19T16:03:32.019Z,23.87
2018-02-19T16:05:58.994Z,24.63
2018-02-19T16:08:25.264Z,23.50
2018-02-19T16:10:51.526Z,27.47
2018-02-19T16:13:18.529Z,26.90
2018-02-19T16:15:44.778Z,24.07
2018-02-19T16:18:11.964Z,25.80
2018-02-19T16:20:38.220Z,25.30
2018-02-19T16:23:04.478Z,22.53
2018-02-19T16:25:30.760Z,25.73
2018-02-19T16:27:57.185Z,25.20
2018-02-19T16:30:24.171Z,23.20
2018-02-19T16:32:50.405Z,24.10
2018-02-19T16:35:16.651Z,32.20
2018-02-19T16:37:42.891Z,25.00
2018-02-19T16:40:09.135Z,29.13
2018-02-19T16:42:36.149Z,26.50
2018-02-19T16:45:02.415Z,23.70
2018-02-19T16:47:29.455Z,23.97
2018-02-19T16:49:55.727Z,40.10
2018-02-19T16:52:34.596Z,27.33
2018-02-19T16:55:00.961Z,25.37
2018-02-19T16:57:28.044Z,25.43
2018-02-19T16:59:54.317Z,22.37
2018-02-19T17:02:20.628Z,26.33
2018-02-19T17:04:46.941Z,27.10
2018-02-19T17:07:13.202Z,27.30
2018-02-19T17:09:39.644Z,31.83
2018-02-19T17:12:05.930Z,28.33
2018-02-19T17:14:32.184Z,33.33
2018-02-19T17:16:58.484Z,32.03
2018-02-19T17:19:24.753Z,28.40
2018-02-19T17:21:51.059Z,26.83
2018-02-19T17:24:17.323Z,22.63
2018-02-19T17:26:43.568Z,26.60
2018-02-19T17:29:10.575Z,40.57
2018-02-19T17:31:36.864Z,37.90
2018-02-19T17:34:03.130Z,33.50
2018-02-19T17:36:29.395Z,36.20
2018-02-19T17:38:56.387Z,33.57
2018-02-19T17:41:22.667Z,32.17
2018-02-19T17:43:48.894Z,26.30
2018-02-19T17:46:15.135Z,35.47
2018-02-19T17:48:42.155Z,25.53
2018-02-19T17:51:08.408Z,30.93
2018-02-19T17:53:35.561Z,26.90
2018-02-19T17:56:02.576Z,33.00
2018-02-19T17:58:28.856Z,29.30
2018-02-19T18:00:55.210Z,25.40
2018-02-19T18:03:21.484Z,44.17
2018-02-19T18:05:54.695Z,41.90
2018-02-19T18:08:21.713Z,39.90
2018-02-19T18:10:47.968Z,39.13
2018-02-19T18:13:14.976Z,34.70
2018-02-19T18:15:41.294Z,30.53
2018-02-19T18:18:07.548Z,42.23
2018-02-19T18:20:33.797Z,36.23
2018-02-19T18:23:00.070Z,33.73
2018-02-19T18:25:26.470Z,41.60
2018-02-19T18:27:53.499Z,35.13
2018-02-19T18:30:19.772Z,33.83
2018-02-19T18:32:46.036Z,33.57
2018-02-19T18:35:12.388Z,37.80
2018-02-19T18:37:39.677Z,37.17
2018-02-19T18:40:06.029Z,35.77
2018-02-19T18:42:32.479Z,32.27
2018-02-19T18:44:59.830Z,29.47
2018-02-19T18:47:26.146Z,33.07
2018-02-19T18:49:52.482Z,31.73
2018-02-19T18:52:18.750Z,38.73
2018-02-19T18:54:45.280Z,35.53
2018-02-19T18:57:11.847Z,31.20
2018-02-19T18:59:39.134Z,42.70
2018-02-19T19:02:05.565Z,34.67
2018-02-19T19:04:31.906Z,38.87
2018-02-19T19:06:58.185Z,41.33
2018-02-19T19:09:43.158Z,33.10
2018-02-19T19:12:10.174Z,39.40
2018-02-19T19:14:36.470Z,31.80
2018-02-19T19:17:02.777Z,47.93
2018-02-19T19:19:29.803Z,48.07
2018-02-19T19:21:56.100Z,46.43
2018-02-19T19:24:22.442Z,43.60
2018-02-19T19:26:48.785Z,42.37
2018-02-19T19:29:15.064Z,39.00
2018-02-19T19:31:41.348Z,40.93
2018-02-19T19:34:07.626Z,39.73
2018-02-19T19:36:33.976Z,43.10
2018-02-19T19:39:00.400Z,40.43
2018-02-19T19:41:26.670Z,46.53
2018-02-19T19:43:52.934Z,40.50
2018-02-19T19:46:20.221Z,46.37
2018-02-19T19:48:46.511Z,44.37
2018-02-19T19:51:13.518Z,42.90
2018-02-19T19:53:39.802Z,44.13
2018-02-19T19:56:06.871Z,41.30
2018-02-19T19:58:34.151Z,39.53
2018-02-19T20:01:00.468Z,44.33
2018-02-19T20:03:26.755Z,40.13
2018-02-19T20:05:53.793Z,37.50
2018-02-19T20:08:20.061Z,38.97
2018-02-19T20:10:46.390Z,37.60
2018-02-19T20:13:13.441Z,41.13
2018-02-19T20:15:39.823Z,38.77
2018-02-19T20:18:06.082Z,43.20
2018-02-19T20:20:33.148Z,38.27
2018-02-19T20:22:59.544Z,42.87
2018-02-19T20:25:25.840Z,40.37
2018-02-19T20:27:52.142Z,45.17
2018-02-19T20:30:18.458Z,40.90
2018-02-19T20:32:44.744Z,37.53
2018-02-19T20:35:11.025Z,40.70
2018-02-19T20:37:37.359Z,41.33
2018-02-19T20:40:03.639Z,42.33
2018-02-19T20:42:29.925Z,47.30
2018-02-19T20:44:56.188Z,37.17
2018-02-19T20:47:22.581Z,45.33
2018-02-19T20:49:48.848Z,41.63
2018-02-19T20:52:15.139Z,41.13
2018-02-19T20:54:41.537Z,41.40
2018-02-19T20:57:08.619Z,37.73
2018-02-19T20:59:34.945Z,41.90
2018-02-19T21:02:01.959Z,43.50
2018-02-19T21:04:28.259Z,41.63
2018-02-19T21:06:54.541Z,38.77
2018-02-19T21:09:21.549Z,40.00
2018-02-19T21:11:47.928Z,39.47
2018-02-19T21:14:14.926Z,38.27
2018-02-19T21:16:41.206Z,36.27
2018-02-19T21:19:15.255Z,44.33
2018-02-19T21:21:41.518Z,36.40
2018-02-19T21:24:07.786Z,40.10
2018-02-19T21:26:34.131Z,40.23
2018-02-19T21:29:00.546Z,45.60
2018-02-19T21:31:26.829Z,48.30
2018-02-19T21:33:53.125Z,43.27
2018-02-19T21:36:19.403Z,44.20
2018-02-19T21:38:45.796Z,38.50
2018-02-19T21:41:12.070Z,40.73
2018-02-19T21:43:38.325Z,42.63
2018-02-19T21:46:05.380Z,44.17
2018-02-19T21:48:31.638Z,41.50
2018-02-19T21:50:58.708Z,41.23
2018-02-19T21:53:24.988Z,41.67
2018-02-19T21:55:51.288Z,41.67
2018-02-19T21:58:17.544Z,47.47
2018-02-19T22:00:44.580Z,51.73
2018-02-19T22:03:11.608Z,46.57
2018-02-19T22:05:37.949Z,42.23
2018-02-19T22:08:04.213Z,47.77
2018-02-19T22:10:30.473Z,40.97
2018-02-19T22:12:56.723Z,50.20
2018-02-19T22:15:22.989Z,48.87
2018-02-19T22:17:50.003Z,48.73
2018-02-19T22:20:16.263Z,50.00
2018-02-19T22:22:43.247Z,48.93
2018-02-19T22:25:09.524Z,50.30
2018-02-19T22:27:36.553Z,45.67
2018-02-19T22:30:02.821Z,43.37
2018-02-19T22:32:29.826Z,45.60
2018-02-19T22:34:56.086Z,56.00
2018-02-19T22:37:23.133Z,45.70
2018-02-19T22:39:50.174Z,59.80
2018-02-19T22:42:17.177Z,45.93
2018-02-19T22:44:43.424Z,49.77
2018-02-19T22:47:09.725Z,47.90
2018-02-19T22:49:35.972Z,47.13
2018-02-19T22:52:02.226Z,47.53
2018-02-19T22:54:28.502Z,54.47
2018-02-19T22:56:54.745Z,51.73
2018-02-19T22:59:21.045Z,50.13
2018-02-19T23:01:48.035Z,51.87
2018-02-19T23:04:14.331Z,46.00
2018-02-19T23:06:40.595Z,45.93
2018-02-19T23:09:06.875Z,54.30
2018-02-19T23:11:33.857Z,46.53
2018-02-19T23:14:00.144Z,50.27
2018-02-19T23:16:27.135Z,56.80
2018-02-19T23:18:53.431Z,53.40
2018-02-19T23:21:20.460Z,49.73
2018-02-19T23:23:46.730Z,58.17
2018-02-19T23:26:13.008Z,54.60
2018-02-19T23:28:39.306Z,48.07
2018-02-19T23:31:05.586Z,56.23
2018-02-19T23:33:32.553Z,55.00
2018-02-19T23:35:59.638Z,53.37
2018-02-19T23:38:25.930Z,53.27
2018-02-19T23:40:52.964Z,49.77
2018-02-19T23:43:19.974Z,56.00
2018-02-19T23:45:46.225Z,55.20
2018-02-19T23:48:12.500Z,46.17
2018-02-19T23:50:38.783Z,49.40
2018-02-19T23:53:05.065Z,51.13
2018-02-19T23:55:31.343Z,55.43
2018-02-19T23:57:57.625Z,52.70
